Time;durP1;ratioP1;P1;durP2;ratioP2;P2;SDS_P1;SDS_P2;PMS_P1;PMS_P2;Temp;Humidity;BMP_temperature;BMP_pressure;BME280_temperature;BME280_humidity;BME280_pressure;Samples;Min_cycle;Max_cycle;Signal;HPM_P1;HPM_P2
2022/01/18 09:11:36;;;;;;;;;;;6.50;99.90;;;;;;5130111;27;19916;-74
2022/01/18 09:14:01;;;;;;;;;;;6.50;99.90;;;;;;5130671;28;19961;-74
2022/01/18 09:16:27;;;;;;;;;;;6.60;99.90;;;;;;5131750;28;19908;-74
2022/01/18 09:18:52;;;;;;;;;;;6.60;99.90;;;;;;5129676;28;19907;-75
2022/01/18 09:21:18;;;;;;;;;;;;;;;;;;5130456;28;19912;-75
2022/01/18 09:23:44;;;;;;;;;;;6.70;99.90;;;;;;5130340;28;19912;-75
2022/01/18 09:26:13;;;;;;;;;;;6.70;99.90;;;;;;5129720;28;19990;-74
2022/01/18 09:28:38;;;;;;;;;;;7.20;99.90;;;;;;5112746;28;20317;-72
2022/01/18 09:31:04;;;;;;;;;;;6.80;99.90;;;;;;5130002;28;19920;-72
2022/01/18 09:33:29;;;;;;;;;;;6.70;99.90;;;;;;5129945;28;19919;-72
2022/01/18 09:35:55;;;;;;;;;;;;;;;;;;5129639;28;19908;-72
2022/01/18 09:38:21;;;;;;;;;;;6.90;99.90;;;;;;5130498;28;19912;-73
2022/01/18 09:40:46;;;;;;;;;;;6.80;99.90;;;;;;5130523;28;19926;-73
2022/01/18 09:43:14;;;;;;;;;;;6.80;99.90;;;;;;5111504;28;19916;-74
2022/01/18 09:45:41;;;;;;;;;;;6.70;99.90;;;;;;5130803;28;19915;-75
2022/01/18 09:48:07;;;;;;;;;;;;;;;;;;5129972;28;19907;-76
2022/01/18 09:50:35;;;;;;;;;;;7.00;99.90;;;;;;5130511;28;20033;-75
2022/01/18 09:53:01;;;;;;;;;;;6.90;99.90;;;;;;5129744;28;19953;-75
2022/01/18 09:55:29;;;;;;;;;;;7.00;99.90;;;;;;5130351;28;20421;-74
2022/01/18 09:57:54;;;;;;;;;;;7.10;99.90;;;;;;5128463;28;20385;-75
2022/01/18 10:00:21;;;;;;;;;;;7.20;99.90;;;;;;5130268;28;19908;-74
2022/01/18 10:02:47;;;;;;;;;;;7.10;99.90;;;;;;5130350;28;19912;-74
2022/01/18 10:05:32;;;;;;;;;;;6.80;99.90;;;;;;5129163;28;19986;-74
2022/01/18 10:08:00;;;;;;;;;;;6.70;99.90;;;;;;5129338;28;20339;-73
2022/01/18 10:10:26;;;;;;;;;;;;;;;;;;5129190;28;19924;-73
2022/01/18 10:12:52;;;;;;;;;;;;;;;;;;5129474;28;20367;-80
2022/01/18 10:15:17;;;;;;;;;;;;;;;;;;5129675;28;19945;-72
2022/01/18 10:17:43;;;;;;;;;;;6.80;99.90;;;;;;5129975;28;20408;-71
2022/01/18 10:20:09;;;;;;;;;;;;;;;;;;5128619;28;20378;-75
2022/01/18 10:22:40;;;;;;;;;;;;;;;;;;5091681;28;19912;-72
2022/01/18 10:25:07;;;;;;;;;;;;;;;;;;5089611;28;19919;-74
2022/01/18 10:27:32;;;;;;;;;;;;;;;;;;5095428;28;19912;-73
2022/01/18 10:30:04;;;;;;;;;;;6.80;99.90;;;;;;5113901;28;19934;-72
2022/01/18 10:32:37;;;;;;;;;;;6.80;99.90;;;;;;5116254;28;19908;-72
2022/01/18 10:35:05;;;;;;;;;;;6.90;99.90;;;;;;5115609;28;19960;-71
2022/01/18 10:37:32;;;;;;;;;;;7.00;99.90;;;;;;5116159;28;20007;-72
2022/01/18 10:40:06;;;;;;;;;;;7.00;99.90;;;;;;5115064;28;19912;-72
2022/01/18 10:42:53;;;;;;;;;;;7.00;99.90;;;;;;5116012;28;19932;-72
2022/01/18 10:45:28;;;;;;;;;;;7.10;99.90;;;;;;5115956;28;20006;-72
2022/01/18 10:47:57;;;;;;;;;;;7.10;99.90;;;;;;5115318;28;19912;-73
2022/01/18 10:50:23;;;;;;;;;;;7.20;99.90;;;;;;5115249;28;19926;-72
2022/01/18 10:52:52;;;;;;;;;;;7.00;99.90;;;;;;5115594;28;19912;-72
2022/01/18 10:55:23;;;;;;;;;;;7.10;99.90;;;;;;5115473;28;19961;-72
2022/01/18 10:57:48;;;;;;;;;;;7.10;99.90;;;;;;5114912;28;19915;-72
2022/01/18 11:00:14;;;;;;;;;;;7.20;99.90;;;;;;5114841;28;19916;-72
2022/01/18 11:02:40;;;;;;;;;;;7.30;99.90;;;;;;5116145;28;19911;-73
2022/01/18 11:05:12;;;;;;;;;;;7.30;99.90;;;;;;5114715;28;19908;-72
2022/01/18 11:07:38;;;;;;;;;;;7.20;99.90;;;;;;5115320;28;19912;-72
2022/01/18 11:10:05;;;;;;;;;;;7.30;99.90;;;;;;5113898;28;19923;-72
2022/01/18 11:12:42;;;;;;;;;;;7.60;99.90;;;;;;5115479;28;19908;-69
2022/01/18 11:15:15;;;;;;;;;;;7.60;99.90;;;;;;5114946;28;19957;-69
2022/01/18 11:17:43;;;;;;;;;;;7.60;99.90;;;;;;5115392;28;19915;-70
2022/01/18 11:20:09;;;;;;;;;;;7.50;99.90;;;;;;5114350;28;20423;-72
2022/01/18 11:22:35;;;;;;;;;;;7.50;99.90;;;;;;5115180;28;20026;-70
2022/01/18 11:25:01;;;;;;;;;;;7.60;99.90;;;;;;5114144;28;19931;-73
2022/01/18 11:27:29;;;;;;;;;;;7.40;99.90;;;;;;5115137;28;20352;-72
2022/01/18 11:29:55;;;;;;;;;;;;;;;;;;5109034;28;19920;-76
2022/01/18 11:32:24;;;;;;;;;;;7.80;99.90;;;;;;5109887;28;20272;-72
2022/01/18 11:34:55;;;;;;;;;;;7.80;99.90;;;;;;5114628;28;19908;-72
2022/01/18 11:37:21;;;;;;;;;;;;;;;;;;5114591;28;19911;-73
2022/01/18 11:39:55;;;;;;;;;;;7.90;99.90;;;;;;5114856;28;20073;-72
2022/01/18 11:42:21;;;;;;;;;;;7.60;99.90;;;;;;5115389;28;19915;-72
2022/01/18 11:44:46;;;;;;;;;;;7.80;99.90;;;;;;5114800;28;19908;-71
2022/01/18 11:47:12;;;;;;;;;;;;;;;;;;5114174;28;19927;-73
2022/01/18 11:49:44;;;;;;;;;;;7.70;99.90;;;;;;5114594;28;19918;-73
2022/01/18 11:52:24;;;;;;;;;;;7.90;99.90;;;;;;5112578;28;19919;-72
2022/01/18 11:57:21;;;;;;;;;;;8.00;99.90;;;;;;5113772;28;20405;-71
2022/01/18 11:59:47;;;;;;;;;;;8.00;99.90;;;;;;5114893;28;19943;-71
2022/01/18 12:02:24;;;;;;;;;;;8.00;99.90;;;;;;5113852;28;19916;-71
2022/01/18 12:04:54;;;;;;;;;;;8.40;99.90;;;;;;5114450;28;20372;-71
2022/01/18 12:07:38;;;;;;;;;;;8.30;99.90;;;;;;5113302;28;20263;-72
2022/01/18 12:10:06;;;;;;;;;;;7.90;99.90;;;;;;5094969;28;19928;-71
2022/01/18 12:12:41;;;;;;;;;;;8.20;99.90;;;;;;5114302;28;19907;-71
2022/01/18 12:15:15;;;;;;;;;;;7.80;99.90;;;;;;5113325;28;20313;-71
2022/01/18 12:18:01;;;;;;;;;;;7.80;99.90;;;;;;5113984;28;19912;-71
2022/01/18 12:20:46;;;;;;;;;;;8.00;99.90;;;;;;5113079;28;20372;-71
2022/01/18 12:23:12;;;;;;;;;;;8.00;99.90;;;;;;5113518;28;19950;-71
2022/01/18 12:25:55;;;;;;;;;;;8.20;99.90;;;;;;5095828;28;19954;-71
2022/01/18 12:28:48;;;;;;;;;;;8.50;99.90;;;;;;5113409;28;19908;-71
2022/01/18 12:31:41;;;;;;;;;;;8.30;99.90;;;;;;5113354;28;19918;-71
2022/01/18 12:34:51;;;;;;;;;;;8.30;99.90;;;;;;5113316;28;20283;-71
2022/01/18 12:37:19;;;;;;;;;;;;;;;;;;4990466;28;19918;-71
2022/01/18 12:39:54;;;;;;;;;;;8.30;99.90;;;;;;5080469;28;19916;-71
2022/01/18 12:44:20;;;;;;;;;;;8.20;99.90;;;;;;5074722;28;20318;-71
2022/01/18 12:45:16;;;;;;;;;;;8.20;99.90;;;;;;5092768;28;19908;-71
2022/01/18 12:47:42;;;;;;;;;;;8.30;99.90;;;;;;5112374;28;19912;-71
2022/01/18 12:50:08;;;;;;;;;;;8.50;99.90;;;;;;5113166;28;19911;-72
2022/01/18 12:53:05;;;;;;;;;;;8.20;99.90;;;;;;5113737;28;19919;-71
2022/01/18 12:55:38;;;;;;;;;;;8.00;99.90;;;;;;5096559;28;20360;-71
2022/01/18 12:58:05;;;;;;;;;;;7.90;99.90;;;;;;5095106;28;19912;-72
2022/01/18 13:00:31;;;;;;;;;;;;;;;;;;5113588;28;20316;-75
2022/01/18 13:02:57;;;;;;;;;;;7.60;99.90;;;;;;5112964;28;19962;-71
2022/01/18 13:05:31;;;;;;;;;;;7.70;99.90;;;;;;5112921;28;19934;-72
2022/01/18 13:07:57;;;;;;;;;;;7.80;99.90;;;;;;5113153;28;20394;-72
2022/01/18 13:10:37;;;;;;;;;;;7.80;99.90;;;;;;5112541;28;19927;-71
2022/01/18 13:13:03;;;;;;;;;;;;;;;;;;5112481;28;19914;-75
2022/01/18 13:15:40;;;;;;;;;;;7.90;99.90;;;;;;5112988;28;20251;-72
2022/01/18 13:23:56;;;;;;;;;;;8.50;99.90;;;;;;5113445;28;20014;-72
2022/01/18 13:26:38;;;;;;;;;;;8.60;99.90;;;;;;5112279;28;19972;-72
2022/01/18 13:29:04;;;;;;;;;;;;;;;;;;5112107;28;19995;-79
2022/01/18 13:31:29;;;;;;;;;;;8.80;99.90;;;;;;5112387;28;19995;-72
2022/01/18 13:34:00;;;;;;;;;;;;;;;;;;5112678;28;20279;-73
2022/01/18 13:36:28;;;;;;;;;;;9.20;99.90;;;;;;5111607;28;19919;-73
2022/01/18 13:38:54;;;;;;;;;;;9.10;99.90;;;;;;5113060;28;20375;-73
2022/01/18 13:41:20;;;;;;;;;;;9.30;99.90;;;;;;5094328;28;19947;-73
2022/01/18 13:43:47;;;;;;;;;;;9.30;99.90;;;;;;5113116;28;19908;-72
2022/01/18 13:46:13;;;;;;;;;;;;;;;;;;5112278;28;20381;-72
2022/01/18 13:48:38;;;;;;;;;;;9.90;99.90;;;;;;5113117;28;19998;-72
2022/01/18 13:51:08;;;;;;;;;;;9.60;99.90;;;;;;5094304;28;19916;-74
2022/01/18 13:53:35;;;;;;;;;;;9.50;99.90;;;;;;5112952;28;19929;-72
2022/01/18 13:56:02;;;;;;;;;;;9.90;99.90;;;;;;5113316;28;19924;-72
2022/01/18 13:58:33;;;;;;;;;;;9.90;99.50;;;;;;5116580;28;19908;-72
2022/01/18 14:01:07;;;;;;;;;;;10.00;98.80;;;;;;5116835;28;19908;-72
2022/01/18 14:03:34;;;;;;;;;;;9.80;98.10;;;;;;5116813;28;19912;-72
2022/01/18 14:06:00;;;;;;;;;;;9.90;97.90;;;;;;5116638;28;19915;-72
2022/01/18 14:08:33;;;;;;;;;;;10.60;97.60;;;;;;5116070;28;19908;-72
2022/01/18 14:10:59;;;;;;;;;;;10.70;94.50;;;;;;5116114;28;19924;-72
2022/01/18 14:13:30;;;;;;;;;;;10.60;95.00;;;;;;5116081;28;19911;-72
2022/01/18 14:15:55;;;;;;;;;;;10.30;91.70;;;;;;5116207;28;19908;-71
2022/01/18 14:18:21;;;;;;;;;;;10.70;92.60;;;;;;5115950;28;19911;-71
2022/01/18 14:20:46;;;;;;;;;;;10.30;87.80;;;;;;5116510;28;19908;-71
2022/01/18 14:23:19;;;;;;;;;;;9.60;93.30;;;;;;5097568;28;19908;-72
2022/01/18 14:25:46;;;;;;;;;;;9.60;94.80;;;;;;5116594;28;19915;-73
2022/01/18 14:28:14;;;;;;;;;;;9.50;95.20;;;;;;5114947;28;20304;-73
2022/01/18 14:30:43;;;;;;;;;;;9.30;94.90;;;;;;5116340;28;19968;-72
2022/01/18 14:33:09;;;;;;;;;;;9.00;96.20;;;;;;5115678;28;19908;-72
2022/01/18 14:35:42;;;;;;;;;;;9.00;97.00;;;;;;5116469;28;20348;-72
2022/01/18 14:38:14;;;;;;;;;;;9.00;97.70;;;;;;5115264;28;19947;-74
2022/01/18 14:40:42;;;;;;;;;;;9.30;97.50;;;;;;5116291;28;20369;-71
2022/01/18 14:43:25;;;;;;;;;;;9.60;96.10;;;;;;5115447;28;19915;-71
2022/01/18 14:48:22;;;;;;;;;;;9.90;94.40;;;;;;5094911;28;19992;-70
2022/01/18 14:50:48;;;;;;;;;;;10.20;92.90;;;;;;5095054;28;20365;-72
2022/01/18 14:53:14;;;;;;;;;;;10.60;90.80;;;;;;5094961;28;19908;-72
2022/01/18 14:55:39;;;;;;;;;;;10.50;87.70;;;;;;5094145;28;19915;-72
2022/01/18 14:58:05;;;;;;;;;;;10.20;87.20;;;;;;5113836;28;19908;-71
2022/01/18 15:00:31;;;;;;;;;;;10.40;89.20;;;;;;5115099;28;19914;-72
2022/01/18 15:02:58;;;;;;;;;;;10.50;87.80;;;;;;5115578;28;19908;-70
2022/01/18 15:05:24;;;;;;;;;;;10.60;85.00;;;;;;5115022;28;19919;-70
2022/01/18 15:07:50;;;;;;;;;;;10.60;83.50;;;;;;5115141;28;19912;-69
2022/01/18 15:10:16;;;;;;;;;;;10.70;82.20;;;;;;5114355;28;19923;-70
2022/01/18 15:12:43;;;;;;;;;;;10.60;80.40;;;;;;5115439;28;20380;-70
2022/01/18 15:15:09;;;;;;;;;;;;;;;;;;5114472;28;19995;-80
2022/01/18 15:17:35;;;;;;;;;;;;;;;;;;5115053;28;20387;-70
2022/01/18 15:20:00;;;;;;;;;;;9.20;91.60;;;;;;5115367;28;19912;-70
2022/01/18 15:22:27;;;;;;;;;;;;;;;;;;5114396;28;19953;-70
2022/01/18 15:24:53;;;;;;;;;;;8.90;93.30;;;;;;5115138;28;19911;-70
2022/01/18 15:27:18;;;;;;;;;;;9.00;93.90;;;;;;5114353;28;19964;-70
2022/01/18 15:29:46;;;;;;;;;;;9.00;95.30;;;;;;5096499;28;20283;-70
2022/01/18 15:32:11;;;;;;;;;;;9.00;95.70;;;;;;5114419;28;19912;-70
2022/01/18 15:34:37;;;;;;;;;;;8.90;96.40;;;;;;5114755;28;19907;-70
2022/01/18 15:37:02;;;;;;;;;;;9.00;97.00;;;;;;5114724;28;20375;-70
2022/01/18 15:39:28;;;;;;;;;;;9.00;97.20;;;;;;5114075;28;20347;-71
2022/01/18 15:41:53;;;;;;;;;;;8.90;97.30;;;;;;5114897;28;19915;-70
2022/01/18 15:44:19;;;;;;;;;;;8.80;97.90;;;;;;5095880;28;19914;-71
2022/01/18 15:46:44;;;;;;;;;;;8.80;98.60;;;;;;5114562;28;19965;-70
2022/01/18 15:49:10;;;;;;;;;;;;;;;;;;5114779;28;19908;-82
2022/01/18 15:51:36;;;;;;;;;;;8.70;99.10;;;;;;5114681;28;20440;-70
2022/01/18 15:54:02;;;;;;;;;;;8.60;99.40;;;;;;5096488;28;19915;-70
2022/01/18 15:56:28;;;;;;;;;;;8.60;99.30;;;;;;5113802;28;19942;-70
2022/01/18 15:58:54;;;;;;;;;;;8.50;99.80;;;;;;5114578;28;20268;-71
2022/01/18 16:01:20;;;;;;;;;;;8.40;99.90;;;;;;5114001;28;19908;-71
2022/01/18 16:03:45;;;;;;;;;;;8.40;99.90;;;;;;5114143;28;20328;-70
2022/01/18 16:06:11;;;;;;;;;;;;;;;;;;5114211;28;19908;-70
2022/01/18 16:08:37;;;;;;;;;;;8.50;99.90;;;;;;5114513;28;19908;-71
2022/01/18 16:11:03;;;;;;;;;;;8.40;99.90;;;;;;5114289;28;20036;-72
2022/01/18 16:13:29;;;;;;;;;;;8.50;99.90;;;;;;5113727;28;19930;-71
2022/01/18 16:15:55;;;;;;;;;;;8.30;99.90;;;;;;5114459;28;19912;-71
2022/01/18 16:18:21;;;;;;;;;;;8.20;99.90;;;;;;5113217;28;19998;-71
2022/01/18 16:20:46;;;;;;;;;;;;;;;;;;5112975;28;19995;-71
2022/01/18 16:23:12;;;;;;;;;;;;;;;;;;5113261;28;19907;-70
2022/01/18 16:25:38;;;;;;;;;;;8.30;99.90;;;;;;5112844;28;20020;-73
2022/01/18 16:28:04;;;;;;;;;;;8.40;99.90;;;;;;5113230;28;20333;-68
2022/01/18 16:30:29;;;;;;;;;;;8.30;99.90;;;;;;5093217;28;19926;-68
2022/01/18 16:32:55;;;;;;;;;;;8.20;99.90;;;;;;5113514;28;20254;-68
2022/01/18 16:35:21;;;;;;;;;;;;;;;;;;5111906;28;20436;-69
2022/01/18 16:37:46;;;;;;;;;;;8.40;99.90;;;;;;5112984;28;20003;-67
2022/01/18 16:40:12;;;;;;;;;;;8.30;99.90;;;;;;5113081;28;20049;-68
2022/01/18 16:42:38;;;;;;;;;;;8.40;99.90;;;;;;5112618;28;19908;-68
2022/01/18 16:45:04;;;;;;;;;;;8.30;99.90;;;;;;5113437;28;19912;-67
2022/01/18 16:47:30;;;;;;;;;;;8.30;99.90;;;;;;5112380;28;19912;-69
2022/01/18 16:49:55;;;;;;;;;;;8.30;99.90;;;;;;5113150;28;19916;-69
2022/01/18 16:52:21;;;;;;;;;;;8.30;99.90;;;;;;5112449;28;20279;-68
2022/01/18 16:54:46;;;;;;;;;;;8.30;99.90;;;;;;5113203;28;19908;-69
2022/01/18 16:57:12;;;;;;;;;;;8.20;99.90;;;;;;5112983;28;19911;-69
2022/01/18 16:59:37;;;;;;;;;;;8.10;99.90;;;;;;5112311;28;20178;-68
2022/01/18 17:02:03;;;;;;;;;;;8.10;99.90;;;;;;5113439;28;20263;-68
2022/01/18 17:04:29;;;;;;;;;;;8.20;99.90;;;;;;5112204;28;19943;-68
2022/01/18 17:06:54;;;;;;;;;;;8.00;99.90;;;;;;5112911;28;19943;-71
2022/01/18 17:09:20;;;;;;;;;;;;;;;;;;5111674;28;19924;-71
2022/01/18 17:11:46;;;;;;;;;;;8.10;99.90;;;;;;5113180;28;19919;-70
2022/01/18 17:14:11;;;;;;;;;;;8.40;99.90;;;;;;5112537;28;20275;-70
2022/01/18 17:16:37;;;;;;;;;;;8.50;99.90;;;;;;5112023;28;20374;-70
2022/01/18 17:19:03;;;;;;;;;;;8.40;99.90;;;;;;5111930;28;19923;-71
2022/01/18 17:21:29;;;;;;;;;;;8.20;99.90;;;;;;5111867;28;19998;-70
2022/01/18 17:23:54;;;;;;;;;;;8.20;99.90;;;;;;5112932;28;20063;-70
2022/01/18 17:26:20;;;;;;;;;;;8.10;99.90;;;;;;5094385;28;19907;-70
2022/01/18 17:28:47;;;;;;;;;;;8.10;99.90;;;;;;5113307;28;19915;-70
2022/01/18 17:31:12;;;;;;;;;;;8.00;99.90;;;;;;5113840;28;20397;-70
2022/01/18 17:33:38;;;;;;;;;;;8.00;99.90;;;;;;5098423;28;20002;-70
2022/01/18 17:36:04;;;;;;;;;;;8.00;99.90;;;;;;5117128;28;19954;-70
2022/01/18 17:38:29;;;;;;;;;;;7.80;99.90;;;;;;5116708;28;19907;-71
2022/01/18 17:40:57;;;;;;;;;;;7.80;99.90;;;;;;5117306;28;19916;-70
2022/01/18 17:43:23;;;;;;;;;;;7.80;99.90;;;;;;5116481;28;19966;-70
2022/01/18 17:45:49;;;;;;;;;;;7.80;99.90;;;;;;5116780;28;19908;-70
2022/01/18 17:48:15;;;;;;;;;;;7.80;99.90;;;;;;5117121;28;19960;-70
2022/01/18 17:50:41;;;;;;;;;;;7.70;99.90;;;;;;5115877;28;20394;-70
2022/01/18 17:53:06;;;;;;;;;;;7.70;99.90;;;;;;5116751;28;19912;-70
2022/01/18 17:55:32;;;;;;;;;;;;;;;;;;5116359;28;19915;-70
2022/01/18 17:57:58;;;;;;;;;;;7.70;99.90;;;;;;5116740;28;20440;-70
2022/01/18 18:00:24;;;;;;;;;;;7.70;99.90;;;;;;5116291;28;19907;-70
2022/01/18 18:02:50;;;;;;;;;;;7.50;99.90;;;;;;5097820;28;20378;-70
2022/01/18 18:05:15;;;;;;;;;;;7.50;99.90;;;;;;5116599;28;19908;-69
2022/01/18 18:07:41;;;;;;;;;;;7.50;99.90;;;;;;5115854;28;19907;-70
2022/01/18 18:10:07;;;;;;;;;;;7.50;99.90;;;;;;5116371;28;19959;-69
2022/01/18 18:12:33;;;;;;;;;;;7.40;99.90;;;;;;5115762;28;20356;-71
2022/01/18 18:14:58;;;;;;;;;;;7.30;99.90;;;;;;5116397;28;19919;-71
2022/01/18 18:17:24;;;;;;;;;;;7.30;99.90;;;;;;5115749;28;19960;-71
2022/01/18 18:19:50;;;;;;;;;;;7.40;99.90;;;;;;5116533;28;19907;-71
2022/01/18 18:22:15;;;;;;;;;;;7.50;99.90;;;;;;5116524;28;19907;-71
2022/01/18 18:24:41;;;;;;;;;;;7.60;99.90;;;;;;5115913;28;19911;-70
2022/01/18 18:27:06;;;;;;;;;;;7.50;99.90;;;;;;5098084;28;19919;-71
2022/01/18 18:29:32;;;;;;;;;;;7.60;99.90;;;;;;5115703;28;19916;-71
2022/01/18 18:31:58;;;;;;;;;;;7.60;99.90;;;;;;5116236;28;19908;-71
2022/01/18 18:34:24;;;;;;;;;;;7.60;99.90;;;;;;5115678;28;19908;-71
2022/01/18 18:36:50;;;;;;;;;;;7.60;99.90;;;;;;5116192;28;20339;-71
2022/01/18 18:39:22;;;;;;;;;;;7.50;99.90;;;;;;5115628;28;20014;-71
2022/01/18 18:44:24;;;;;;;;;;;7.50;99.90;;;;;;5115283;28;19951;-72
2022/01/18 18:46:50;;;;;;;;;;;7.60;99.90;;;;;;5115395;28;19947;-72
2022/01/18 18:49:16;;;;;;;;;;;7.50;99.90;;;;;;5115819;28;19908;-72
2022/01/18 18:51:41;;;;;;;;;;;7.50;99.90;;;;;;5115277;28;19919;-71
2022/01/18 18:54:07;;;;;;;;;;;7.50;99.90;;;;;;5116048;28;20002;-73
2022/01/18 18:56:35;;;;;;;;;;;;;;;;;;5114949;28;20329;-73
2022/01/18 19:01:41;;;;;;;;;;;7.40;99.90;;;;;;5114950;28;19911;-72
2022/01/18 19:04:07;;;;;;;;;;;7.30;99.90;;;;;;5097579;28;19969;-73
2022/01/18 19:06:32;;;;;;;;;;;7.20;99.90;;;;;;5115122;28;20329;-73
2022/01/18 19:08:58;;;;;;;;;;;7.30;99.90;;;;;;5115349;28;20352;-71
2022/01/18 19:11:24;;;;;;;;;;;;;;;;;;5114845;28;20018;-74
2022/01/18 19:13:50;;;;;;;;;;;7.00;99.90;;;;;;5115527;28;19908;-72
2022/01/18 19:16:16;;;;;;;;;;;7.10;99.90;;;;;;5097308;28;19915;-72
2022/01/18 19:18:41;;;;;;;;;;;7.10;99.90;;;;;;5114569;28;20279;-71
2022/01/18 19:21:09;;;;;;;;;;;7.20;99.90;;;;;;5115417;28;19912;-72
2022/01/18 19:23:36;;;;;;;;;;;7.00;99.70;;;;;;5114643;28;20432;-71
2022/01/18 19:26:06;;;;;;;;;;;7.00;99.80;;;;;;5115274;28;19908;-71
2022/01/18 19:28:31;;;;;;;;;;;6.90;99.60;;;;;;5114697;28;19966;-72
2022/01/18 19:30:57;;;;;;;;;;;6.90;99.40;;;;;;5114847;28;20380;-71
2022/01/18 19:33:23;;;;;;;;;;;6.90;99.50;;;;;;5115127;28;20311;-71
2022/01/18 19:35:51;;;;;;;;;;;6.80;99.40;;;;;;5114829;28;19914;-71
2022/01/18 19:38:16;;;;;;;;;;;6.80;99.40;;;;;;5114914;28;19919;-71
2022/01/18 19:40:42;;;;;;;;;;;6.80;99.50;;;;;;5114940;28;19912;-71
2022/01/18 19:43:07;;;;;;;;;;;6.60;99.60;;;;;;5114581;28;20279;-71
2022/01/18 19:45:38;;;;;;;;;;;6.50;99.80;;;;;;5114289;28;19912;-71
2022/01/18 19:48:05;;;;;;;;;;;6.50;99.90;;;;;;5114770;28;20355;-71
2022/01/18 19:50:33;;;;;;;;;;;6.40;99.90;;;;;;5114133;28;20428;-71
2022/01/18 19:52:59;;;;;;;;;;;6.50;99.90;;;;;;5114714;28;19908;-71
2022/01/18 19:55:28;;;;;;;;;;;;;;;;;;5114163;28;20065;-71
2022/01/18 19:57:54;;;;;;;;;;;6.40;99.50;;;;;;5114708;28;20260;-71
2022/01/18 20:00:20;;;;;;;;;;;6.30;99.50;;;;;;5095163;28;19963;-71
2022/01/18 20:02:45;;;;;;;;;;;6.30;99.80;;;;;;5113613;28;19990;-70
2022/01/18 20:05:11;;;;;;;;;;;6.30;99.80;;;;;;5114321;28;19903;-71
2022/01/18 20:07:37;;;;;;;;;;;6.30;99.70;;;;;;5114003;28;19907;-70
2022/01/18 20:10:03;;;;;;;;;;;6.30;99.50;;;;;;5113940;28;20344;-70
2022/01/18 20:12:29;;;;;;;;;;;6.40;99.60;;;;;;5113769;28;19995;-71
2022/01/18 20:14:55;;;;;;;;;;;6.40;99.90;;;;;;5114232;28;19950;-70
2022/01/18 20:17:20;;;;;;;;;;;6.40;99.90;;;;;;5095784;28;19915;-70
2022/01/18 20:19:46;;;;;;;;;;;6.40;99.90;;;;;;5113777;28;19973;-71
2022/01/18 20:22:12;;;;;;;;;;;;;;;;;;5113402;28;19927;-72
2022/01/18 20:24:39;;;;;;;;;;;6.40;99.90;;;;;;5109698;28;19972;-70
2022/01/18 20:27:09;;;;;;;;;;;6.30;99.90;;;;;;5113462;28;20348;-71
2022/01/18 20:29:35;;;;;;;;;;;;;;;;;;5112341;28;19920;-73
2022/01/18 20:32:01;;;;;;;;;;;6.10;99.90;;;;;;5114238;28;20011;-70
2022/01/18 20:34:27;;;;;;;;;;;;;;;;;;5114405;28;19947;-70
2022/01/18 20:36:52;;;;;;;;;;;6.10;99.90;;;;;;5114098;28;19962;-71
2022/01/18 20:39:18;;;;;;;;;;;6.10;99.90;;;;;;5113852;28;20358;-70
2022/01/18 20:44:28;;;;;;;;;;;;;;;;;;5113619;28;19961;-78
2022/01/18 20:46:55;;;;;;;;;;;6.00;99.90;;;;;;5113883;28;19912;-71
2022/01/18 20:49:21;;;;;;;;;;;6.00;99.80;;;;;;5113861;28;19915;-71
2022/01/18 20:51:47;;;;;;;;;;;5.90;99.60;;;;;;5113289;28;20279;-72
2022/01/18 20:54:12;;;;;;;;;;;5.90;99.60;;;;;;5113722;28;19962;-71
2022/01/18 20:56:38;;;;;;;;;;;6.00;99.80;;;;;;5113215;28;19907;-73
2022/01/18 20:59:04;;;;;;;;;;;6.00;99.50;;;;;;5113401;28;19935;-72
2022/01/18 21:01:29;;;;;;;;;;;6.00;99.40;;;;;;5112614;28;19908;-73
2022/01/18 21:03:55;;;;;;;;;;;6.00;99.50;;;;;;5113426;28;20004;-71
2022/01/18 21:06:20;;;;;;;;;;;6.00;99.30;;;;;;5112808;28;19911;-71
2022/01/18 21:08:46;;;;;;;;;;;5.80;99.00;;;;;;5111495;28;20419;-72
2022/01/18 21:11:12;;;;;;;;;;;;;;;;;;5112488;28;19924;-72
2022/01/18 21:13:50;;;;;;;;;;;6.00;99.00;;;;;;5111725;28;19908;-72
2022/01/18 21:16:16;;;;;;;;;;;;;;;;;;5111696;28;20408;-72
2022/01/18 21:18:41;;;;;;;;;;;5.90;98.60;;;;;;5111184;28;19912;-73
2022/01/18 21:21:07;;;;;;;;;;;5.80;98.90;;;;;;5112321;28;19915;-72
2022/01/18 21:23:33;;;;;;;;;;;;;;;;;;5111623;28;20419;-74
2022/01/18 21:25:58;;;;;;;;;;;5.70;98.70;;;;;;5102401;28;19917;-71
2022/01/18 21:28:24;;;;;;;;;;;5.70;98.90;;;;;;5093824;28;20279;-73
2022/01/18 21:30:49;;;;;;;;;;;5.60;99.20;;;;;;5111813;28;19955;-72
2022/01/18 21:33:16;;;;;;;;;;;;;;;;;;5112160;28;19915;-73
2022/01/18 21:35:43;;;;;;;;;;;5.30;99.60;;;;;;5111584;28;19911;-72
2022/01/18 21:38:08;;;;;;;;;;;5.40;99.90;;;;;;5112265;28;20348;-72
2022/01/18 21:40:34;;;;;;;;;;;;;;;;;;5111394;28;19923;-75
2022/01/18 21:43:01;;;;;;;;;;;5.30;99.90;;;;;;5111768;28;19908;-72
2022/01/18 21:45:26;;;;;;;;;;;5.40;99.90;;;;;;5112329;28;19911;-73
2022/01/18 21:47:52;;;;;;;;;;;5.30;99.90;;;;;;5112183;28;19988;-72
2022/01/18 21:50:18;;;;;;;;;;;5.30;99.90;;;;;;5094198;28;20019;-73
2022/01/18 21:52:43;;;;;;;;;;;5.40;99.90;;;;;;5093930;28;20367;-72
2022/01/18 21:55:10;;;;;;;;;;;5.40;99.80;;;;;;5112644;28;19914;-73
2022/01/18 21:57:36;;;;;;;;;;;5.20;99.50;;;;;;5111698;28;19908;-73
2022/01/18 22:00:03;;;;;;;;;;;5.30;99.70;;;;;;5112366;28;19908;-73
2022/01/18 22:02:29;;;;;;;;;;;;;;;;;;5111900;28;19908;-81
2022/01/18 22:04:55;;;;;;;;;;;;;;;;;;5111968;28;19922;-73
2022/01/18 22:07:21;;;;;;;;;;;5.10;99.30;;;;;;5112315;28;19908;-72
2022/01/18 22:09:47;;;;;;;;;;;4.80;99.30;;;;;;5111164;28;19931;-73
2022/01/18 22:12:12;;;;;;;;;;;4.80;99.70;;;;;;5094085;28;19908;-73
2022/01/18 22:14:38;;;;;;;;;;;4.80;99.90;;;;;;5111623;28;20289;-73
2022/01/18 22:17:04;;;;;;;;;;;5.00;99.90;;;;;;5094284;28;19919;-73
2022/01/18 22:19:30;;;;;;;;;;;4.90;99.90;;;;;;5115298;28;19908;-74
2022/01/18 22:21:55;;;;;;;;;;;4.90;99.90;;;;;;5115654;28;20355;-72
2022/01/18 22:24:21;;;;;;;;;;;4.80;99.90;;;;;;5115706;28;19908;-73
2022/01/18 22:26:47;;;;;;;;;;;;;;;;;;5115493;28;19912;-74
2022/01/18 22:29:12;;;;;;;;;;;4.70;99.80;;;;;;5115519;28;20309;-73
2022/01/18 22:31:38;;;;;;;;;;;4.70;99.90;;;;;;5096487;28;19920;-73
2022/01/18 22:34:03;;;;;;;;;;;4.70;99.90;;;;;;5115160;28;19951;-73
2022/01/18 22:36:29;;;;;;;;;;;;;;;;;;5115288;28;19994;-81
2022/01/18 22:38:56;;;;;;;;;;;4.60;99.90;;;;;;5115221;28;20004;-73
2022/01/18 22:41:54;;;;;;;;;;;4.60;99.90;;;;;;5115326;28;19908;-72
2022/01/18 22:44:10;;;;;;;;;;;4.70;99.90;;;;;;5114863;28;20352;-73
2022/01/18 22:46:36;;;;;;;;;;;4.50;99.90;;;;;;5096335;28;19908;-73
2022/01/18 22:49:02;;;;;;;;;;;4.50;99.90;;;;;;5115144;28;19908;-73
2022/01/18 22:51:28;;;;;;;;;;;;;;;;;;5115111;28;19930;-71
2022/01/18 22:53:53;;;;;;;;;;;4.50;99.90;;;;;;5114308;28;19912;-73
2022/01/18 22:56:19;;;;;;;;;;;;;;;;;;5115426;28;19912;-74
2022/01/18 22:58:45;;;;;;;;;;;4.50;99.90;;;;;;5114602;28;19907;-73
2022/01/18 23:01:11;;;;;;;;;;;4.60;99.90;;;;;;5114744;28;19916;-73
2022/01/18 23:03:37;;;;;;;;;;;4.60;99.90;;;;;;5114437;28;19911;-72
2022/01/18 23:06:03;;;;;;;;;;;4.50;99.90;;;;;;5115317;28;19908;-73
2022/01/18 23:08:28;;;;;;;;;;;4.50;99.90;;;;;;5114930;28;19907;-71
2022/01/18 23:10:55;;;;;;;;;;;4.50;99.90;;;;;;5114250;28;19930;-73
2022/01/18 23:13:26;;;;;;;;;;;4.70;99.90;;;;;;5114868;28;19957;-71
2022/01/18 23:15:58;;;;;;;;;;;4.70;99.90;;;;;;5114373;28;19923;-73
2022/01/18 23:18:24;;;;;;;;;;;4.60;99.90;;;;;;5114588;28;19947;-73
2022/01/18 23:20:50;;;;;;;;;;;;;;;;;;5113823;28;19943;-73
2022/01/18 23:23:16;;;;;;;;;;;4.60;99.90;;;;;;5114707;28;19911;-73
2022/01/18 23:25:41;;;;;;;;;;;4.60;99.90;;;;;;5113823;28;19908;-73
2022/01/18 23:28:07;;;;;;;;;;;4.70;99.90;;;;;;5096197;28;20359;-72
2022/01/18 23:30:33;;;;;;;;;;;4.60;99.90;;;;;;5113650;28;19923;-73
2022/01/18 23:32:58;;;;;;;;;;;4.70;99.90;;;;;;5113726;28;20014;-73
2022/01/18 23:35:26;;;;;;;;;;;4.60;99.90;;;;;;5096017;28;20353;-72
2022/01/18 23:37:58;;;;;;;;;;;;;;;;;;5113531;28;19913;-74
2022/01/18 23:43:08;;;;;;;;;;;4.60;99.90;;;;;;5114259;28;20390;-73
2022/01/18 23:45:33;;;;;;;;;;;4.70;99.90;;;;;;5113489;28;19912;-72
2022/01/18 23:47:59;;;;;;;;;;;4.60;99.90;;;;;;5113862;28;19908;-72
2022/01/18 23:50:25;;;;;;;;;;;4.50;99.90;;;;;;5113948;28;19916;-73
2022/01/18 23:52:51;;;;;;;;;;;4.50;99.90;;;;;;5113369;28;19914;-72
2022/01/18 23:55:16;;;;;;;;;;;4.50;99.90;;;;;;5113866;28;19907;-72
2022/01/18 23:57:42;;;;;;;;;;;;;;;;;;5113468;28;19911;-74
